Lake Ariel, Pennsylvania
Current Conditions -  °F | °C
As of 4:54 AM on Tuesday 21 Oct 2014 (Local Time) from KAVP Reporting Station
Light Rain Light Rain  
Wind Chill: 52°   Ceiling: 6000
Heat Index: 52°   Visibility: 10mi
Dew Point: 46°   Wind: 3mph
Humidity: 80%   Direction: 10°N
Pressure: 29.85"   Gusts: NA
Location:  41.45°N, 75.38°W
Report Text: KAVP 210854Z AUTO 01003KT 10SM -RA BKN060 OVC085 11/08 A2985 RMK AO2 RAB26 SLP106 P0000 60000 T01110078 58010
Loading
Personal Weather Stations






























Interactive Weather Map New forecast layout! Learn more

10-Day Weather Forecast

Advertisements
Track Severe Weather on mobile